Time;durP1;ratioP1;P1;durP2;ratioP2;P2;SDS_P1;SDS_P2;PMS_P1;PMS_P2;Temp;Humidity;BMP_temperature;BMP_pressure;BME280_temperature;BME280_humidity;BME280_pressure;Samples;Min_cycle;Max_cycle;Signal;HPM_P1;HPM_P2
2022/01/26 00:00:43;;;;;;;62.42;56.33;;;;;;;-5.24;100.00;102071.41;5077026;28;20462;-81
2022/01/26 00:06:03;;;;;;;134.98;77.78;;;;;;;-5.21;100.00;102068.66;5038231;28;20187;-82
2022/01/26 00:08:30;;;;;;;64.43;58.08;;;;;;;-5.38;100.00;102072.03;5039842;28;20080;-80
2022/01/26 00:10:57;;;;;;;64.15;58.15;;;;;;;-5.35;100.00;102065.88;5036413;28;20425;-82
2022/01/26 00:13:24;;;;;;;262.55;103.70;;;;;;;-5.49;100.00;102073.44;5037426;28;20054;-80
2022/01/26 00:15:53;;;;;;;65.35;58.38;;;;;;;-5.50;100.00;102080.38;5045010;28;20049;-83
2022/01/26 00:18:22;;;;;;;104.72;70.00;;;;;;;-5.39;100.00;102075.53;5044451;28;20042;-80
2022/01/26 00:20:54;;;;;;;61.63;55.40;;;;;;;-5.37;100.00;102065.94;5037694;28;20402;-82
2022/01/26 00:23:47;;;;;;;382.33;143.73;;;;;;;-5.30;100.00;102067.34;5042595;28;20045;-82
2022/01/26 00:26:17;;;;;;;174.10;85.53;;;;;;;-5.41;100.00;102076.53;5037466;28;20041;-80
2022/01/26 00:28:59;;;;;;;229.52;96.93;;;;;;;-5.43;100.00;102079.16;5040226;28;20053;-79
2022/01/26 00:39:41;;;;;;;129.50;73.75;;;;;;;-5.33;100.00;102084.78;5034791;28;20375;-82
2022/01/26 00:42:07;;;;;;;460.75;160.43;;;;;;;-5.20;100.00;102074.72;5040915;28;20064;-83
2022/01/26 00:44:40;;;;;;;83.70;65.55;;;;;;;-5.44;100.00;102069.72;5040314;28;20118;-82
2022/01/26 00:47:09;;;;;;;79.32;63.28;;;;;;;-5.35;100.00;102074.50;5030785;28;20053;-80
2022/01/26 00:49:36;;;;;;;335.55;124.82;;;;;;;-5.32;100.00;102076.09;5044455;28;20052;-80
2022/01/26 00:52:06;;;;;;;64.45;57.47;;;;;;;-4.56;100.00;102086.38;5038647;28;20053;-81
2022/01/26 00:54:33;;;;;;;61.33;55.00;;;;;;;-5.34;100.00;102070.97;5037511;28;20544;-82
2022/01/26 00:56:59;;;;;;;66.15;57.40;;;;;;;-5.25;100.00;102069.72;5023925;28;20061;-80
2022/01/26 00:59:26;;;;;;;61.13;54.92;;;;;;;-5.42;100.00;102064.47;5030022;28;20057;-80
2022/01/26 01:01:55;;;;;;;60.25;54.40;;;;;;;-5.37;100.00;102071.13;5017134;28;20046;-82
2022/01/26 01:04:23;;;;;;;59.13;53.35;;;;;;;-5.39;100.00;102065.16;5024399;28;20148;-82
2022/01/26 01:06:55;;;;;;;61.53;55.35;;;;;;;-5.27;100.00;102068.94;5028042;28;20127;-80
2022/01/26 01:09:23;;;;;;;67.03;60.92;;;;;;;-5.35;100.00;102066.72;5023897;28;20060;-81
2022/01/26 01:11:55;;;;;;;60.20;54.28;;;;;;;-5.28;100.00;102058.66;5025161;28;20100;-80
2022/01/26 01:14:22;;;;;;;59.92;53.75;;;;;;;-5.45;100.00;102059.44;5028596;28;20140;-81
2022/01/26 01:19:45;;;;;;;59.42;53.13;;;;;;;-5.63;100.00;102040.38;5185362;27;20397;-81
2022/01/26 01:25:34;;;;;;;58.13;52.67;;;;;;;-5.39;100.00;102041.84;5145633;27;20482;-82
2022/01/26 01:28:17;;;;;;;58.40;52.53;;;;;;;-5.53;100.00;102026.97;5162217;27;20046;-82
2022/01/26 01:30:47;;;;;;;58.83;53.10;;;;;;;-5.41;100.00;102040.28;5157767;27;20455;-80
2022/01/26 01:33:19;;;;;;;60.88;54.78;;;;;;;-5.52;100.00;102045.94;5153610;27;20061;-83
2022/01/26 01:35:48;;;;;;;62.30;56.08;;;;;;;-5.42;100.00;102030.81;5157605;27;20050;-82
2022/01/26 01:38:18;;;;;;;62.88;56.35;;;;;;;-5.40;100.00;102041.94;5159683;27;20043;-80
2022/01/26 01:40:47;;;;;;;60.90;55.00;;;;;;;-5.47;100.00;102046.56;5164806;27;20108;-82
2022/01/26 01:43:15;;;;;;;58.25;52.22;;;;;;;-5.54;100.00;102042.56;5159849;27;20444;-80
2022/01/26 01:45:46;;;;;;;59.58;54.00;;;;;;;-5.49;100.00;102040.59;5146139;27;20047;-81
2022/01/26 01:48:17;;;;;;;60.47;54.50;;;;;;;-5.46;100.00;102034.44;5156626;27;20065;-80
2022/01/26 01:56:22;;;;;;;58.35;52.63;;;;;;;-5.77;100.00;102018.56;5084758;27;20758;-80
2022/01/26 01:58:49;;;;;;;57.85;51.97;;;;;;;-5.58;100.00;102021.16;5080919;28;20049;-81
2022/01/26 02:01:16;;;;;;;58.72;52.90;;;;;;;-5.65;100.00;102022.34;5071385;28;20060;-80
2022/01/26 02:03:43;;;;;;;60.90;54.85;;;;;;;-5.67;100.00;102011.22;5081285;28;20059;-80
2022/01/26 02:06:10;;;;;;;61.13;55.28;;;;;;;-5.71;100.00;102007.09;5079948;28;20060;-79
2022/01/26 02:08:36;;;;;;;60.13;54.13;;;;;;;-5.64;100.00;102002.47;5076169;28;20121;-81
2022/01/26 02:11:06;;;;;;;74.30;62.75;;;;;;;-5.68;100.00;102001.78;5070806;28;20037;-81
2022/01/26 02:13:42;;;;;;;61.75;55.63;;;;;;;-5.69;100.00;101999.25;5077670;28;20143;-83
2022/01/26 02:16:16;;;;;;;60.35;54.38;;;;;;;-5.61;100.00;101991.97;5076863;28;20083;-80
2022/01/26 02:18:59;;;;;;;59.70;54.22;;;;;;;-5.71;100.00;101977.78;5075268;28;20041;-82
2022/01/26 02:21:51;;;;;;;58.25;52.63;;;;;;;-5.76;100.00;101977.97;5072300;28;20058;-82
2022/01/26 02:54:42;;;;;;;60.10;54.28;;;;;;;-5.64;100.00;101994.72;5061680;28;20041;-83
2022/01/26 02:57:36;;;;;;;60.45;54.70;;;;;;;-5.49;100.00;101998.34;5063976;28;20071;-81
2022/01/26 03:02:53;;;;;;;62.05;56.40;;;;;;;-5.68;100.00;101986.25;5079337;22;20068;-82
2022/01/26 03:05:23;;;;;;;60.47;54.67;;;;;;;-5.67;100.00;101993.09;5038286;28;20045;-81
2022/01/26 03:07:54;;;;;;;63.13;57.25;;;;;;;-5.76;100.00;101986.56;5040536;28;20499;-83
2022/01/26 03:13:05;;;;;;;61.38;54.85;;;;;;;-5.74;100.00;101990.88;5075889;27;20406;-80
2022/01/26 03:15:40;;;;;;;62.35;56.03;;;;;;;-6.00;100.00;101980.78;5070760;28;20057;-82
2022/01/26 03:18:37;;;;;;;64.28;57.88;;;;;;;-5.77;100.00;101987.50;5070118;28;20060;-81
2022/01/26 03:21:07;;;;;;;63.45;57.17;;;;;;;-5.69;100.00;101988.88;5067678;28;20052;-79
2022/01/26 03:29:42;;;;;;;62.38;55.92;;;;;;;-5.61;100.00;101992.81;5008615;28;20049;-82
2022/01/26 03:34:53;;;;;;;65.57;58.28;;;;;;;-5.64;100.00;101997.28;5037047;28;20503;-80
2022/01/26 03:37:23;;;;;;;62.25;56.28;;;;;;;-5.59;100.00;101991.00;5070280;28;20135;-82
2022/01/26 03:39:52;;;;;;;62.00;55.63;;;;;;;-5.63;100.00;101991.19;5068916;28;20092;-79
2022/01/26 03:42:18;;;;;;;63.38;56.85;;;;;;;-5.62;100.00;101991.16;5068309;28;20048;-82
2022/01/26 03:44:47;;;;;;;63.33;56.97;;;;;;;-5.44;100.00;101994.63;5069737;28;20048;-82
2022/01/26 03:47:14;;;;;;;63.58;57.05;;;;;;;-5.71;100.00;102001.91;5069779;28;20040;-81
2022/01/26 03:49:41;;;;;;;61.50;55.30;;;;;;;-5.55;100.00;101995.13;5065711;28;20111;-79
2022/01/26 03:52:08;;;;;;;61.88;55.33;;;;;;;-5.43;100.00;101990.28;5066263;28;20076;-80
2022/01/26 03:54:36;;;;;;;63.83;55.65;;;;;;;-5.27;100.00;101990.41;5066220;28;20393;-80
2022/01/26 03:57:04;;;;;;;60.35;54.13;;;;;;;-5.28;100.00;101991.31;5069429;28;20503;-79
2022/01/26 03:59:33;;;;;;;59.47;53.65;;;;;;;-5.13;100.00;101988.84;5069083;28;20394;-80
2022/01/26 04:02:02;;;;;;;59.90;54.00;;;;;;;-5.21;100.00;101990.94;5051668;28;20053;-81
2022/01/26 04:04:33;;;;;;;58.88;53.03;;;;;;;-5.22;100.00;101988.44;5065205;28;20045;-83
2022/01/26 04:07:01;;;;;;;59.40;53.83;;;;;;;-5.06;100.00;101987.63;5067487;28;20049;-83
2022/01/26 04:09:28;;;;;;;60.90;55.22;;;;;;;-5.10;100.00;101975.75;5057167;28;20099;-82
2022/01/26 04:11:55;;;;;;;59.40;53.70;;;;;;;-5.12;100.00;101989.66;5054875;28;20072;-81
2022/01/26 04:14:26;;;;;;;61.00;54.80;;;;;;;-5.23;100.00;101985.03;5069919;28;20133;-81
2022/01/26 04:16:53;;;;;;;61.08;55.08;;;;;;;-5.18;100.00;101983.03;5068740;28;20053;-80
2022/01/26 04:19:22;;;;;;;64.47;57.92;;;;;;;-5.13;100.00;101978.47;5059192;28;20453;-80
2022/01/26 04:22:00;;;;;;;65.13;58.55;;;;;;;-5.09;100.00;101982.59;5062418;28;20385;-81
2022/01/26 04:24:32;;;;;;;64.50;58.03;;;;;;;-5.26;100.00;101985.16;5048864;28;20473;-83
2022/01/26 04:27:02;;;;;;;;;;;;;;;-5.19;100.00;101970.16;5048022;28;20053;-81
2022/01/26 04:29:31;;;;;;;63.47;57.05;;;;;;;-5.60;100.00;101972.94;5053276;28;19956;-80
2022/01/26 04:32:00;;;;;;;61.90;55.70;;;;;;;-5.25;100.00;101983.41;5039371;28;20045;-82
2022/01/26 04:34:29;;;;;;;66.47;59.60;;;;;;;-5.23;100.00;101981.59;5056465;28;20140;-80
2022/01/26 04:37:01;;;;;;;66.80;59.78;;;;;;;-5.15;100.00;101972.53;5052611;28;20041;-80
2022/01/26 04:39:32;;;;;;;69.07;61.78;;;;;;;-5.15;100.00;101966.50;5045806;28;20057;-80
2022/01/26 04:42:03;;;;;;;69.63;62.47;;;;;;;-5.20;100.00;101966.75;5053461;28;20045;-80
2022/01/26 04:44:35;;;;;;;73.45;57.65;;;;;;;-5.19;100.00;101973.59;5055311;28;20390;-80
2022/01/26 04:47:01;;;;;;;77.05;64.30;;;;;;;-5.17;100.00;101965.75;5054986;28;20591;-81
2022/01/26 04:49:30;;;;;;;72.18;62.35;;;;;;;-5.12;100.00;101974.13;5052162;28;20106;-80
2022/01/26 04:51:56;;;;;;;66.75;59.63;;;;;;;-5.23;100.00;101968.66;5052639;28;20367;-80
2022/01/26 04:54:23;;;;;;;69.88;59.30;;;;;;;-5.09;100.00;101973.97;5054273;28;20053;-80
2022/01/26 04:56:50;;;;;;;78.30;61.50;;;;;;;-5.15;100.00;101969.09;5054670;28;20122;-80
2022/01/26 04:59:16;;;;;;;70.32;61.47;;;;;;;-5.15;100.00;101982.03;5048501;28;20106;-83
2022/01/26 05:04:23;;;;;;;80.72;62.53;;;;;;;-5.22;100.00;101983.25;5079656;27;20419;-82
2022/01/26 05:06:50;;;;;;;83.38;62.67;;;;;;;-4.98;100.00;101981.25;5082979;28;20056;-80
2022/01/26 05:09:19;;;;;;;74.05;61.10;;;;;;;-5.10;100.00;101974.91;5076347;28;20472;-80
2022/01/26 05:11:49;;;;;;;75.95;59.67;;;;;;;-5.21;100.00;101982.34;5072923;28;20148;-80
2022/01/26 05:14:16;;;;;;;73.05;61.17;;;;;;;-5.05;100.00;101972.94;5079496;28;20045;-83
2022/01/26 05:16:43;;;;;;;77.50;64.93;;;;;;;-5.14;100.00;101973.38;5088158;28;20439;-82
2022/01/26 05:19:10;;;;;;;77.68;66.35;;;;;;;-5.15;100.00;101972.53;5076727;28;20051;-79
2022/01/26 05:21:38;;;;;;;74.72;66.85;;;;;;;-4.93;100.00;101974.94;5082859;28;20554;-82
2022/01/26 05:24:06;;;;;;;78.03;69.88;;;;;;;-4.90;100.00;101964.41;5079423;28;20060;-82
2022/01/26 05:26:32;;;;;;;74.55;66.88;;;;;;;-5.06;100.00;101972.06;5076207;28;20497;-81
2022/01/26 05:28:59;;;;;;;73.35;61.70;;;;;;;-4.94;100.00;101969.81;5080696;28;20048;-81
2022/01/26 05:31:26;;;;;;;73.15;65.93;;;;;;;-4.67;100.00;101976.22;5058720;28;20456;-81
2022/01/26 05:33:54;;;;;;;70.68;64.13;;;;;;;-4.57;100.00;101965.38;5072767;28;20074;-80
2022/01/26 05:36:21;;;;;;;72.15;64.40;;;;;;;-4.42;100.00;101964.59;5076294;28;20056;-80
2022/01/26 05:38:49;;;;;;;76.03;67.97;;;;;;;-4.39;100.00;101961.84;5071802;28;20404;-83
2022/01/26 05:41:16;;;;;;;63.72;57.40;;;;;;;-4.46;100.00;101957.91;5071514;28;20117;-80
2022/01/26 05:43:43;;;;;;;64.47;57.50;;;;;;;-4.40;100.00;101955.00;5075192;28;20496;-83
2022/01/26 05:48:53;;;;;;;59.92;54.03;;;;;;;-4.52;100.00;101955.63;5087269;27;20394;-80
2022/01/26 05:51:20;;;;;;;80.03;65.32;;;;;;;-4.45;100.00;101946.59;5075223;28;20473;-82
2022/01/26 05:53:47;;;;;;;77.30;63.45;;;;;;;-4.43;100.00;101948.19;5080491;28;20052;-82
2022/01/26 05:56:13;;;;;;;88.15;79.55;;;;;;;-4.34;100.00;101954.69;5080927;28;20113;-81
2022/01/26 05:58:40;;;;;;;83.47;75.80;;;;;;;-4.38;100.00;101953.16;5081628;28;20064;-82
2022/01/26 06:01:07;;;;;;;80.90;73.80;;;;;;;-4.42;100.00;101944.72;5071085;28;20098;-81
2022/01/26 06:03:34;;;;;;;86.70;78.38;;;;;;;-4.30;100.00;101944.97;5077419;28;20044;-81
2022/01/26 06:06:02;;;;;;;93.28;81.70;;;;;;;-4.34;100.00;101931.34;5078661;28;20044;-80
2022/01/26 06:08:29;;;;;;;81.18;73.65;;;;;;;-4.19;100.00;101942.66;5072999;28;20055;-79
2022/01/26 06:10:56;;;;;;;80.90;73.30;;;;;;;-4.12;100.00;101950.97;5071311;28;20110;-80
2022/01/26 06:13:23;;;;;;;77.07;69.85;;;;;;;-4.02;100.00;101946.97;4975529;28;20062;-81
2022/01/26 06:15:50;;;;;;;74.70;68.35;;;;;;;-4.20;100.00;101935.81;5008444;28;20058;-80
2022/01/26 06:18:17;;;;;;;81.18;73.65;;;;;;;-4.05;100.00;101937.59;5002926;28;20064;-82
2022/01/26 06:20:44;;;;;;;89.70;80.70;;;;;;;-3.80;100.00;101942.31;4999762;28;20120;-81
2022/01/26 06:23:12;;;;;;;79.63;72.88;;;;;;;-1.45;100.00;101944.94;4998632;28;20511;-82
2022/01/26 06:25:39;;;;;;;92.85;83.93;;;;;;;-3.97;100.00;101953.56;5004604;28;20526;-81
2022/01/26 06:28:11;;;;;;;86.95;79.07;;;;;;;-4.06;100.00;101946.28;5005095;28;20464;-80
2022/01/26 06:30:38;;;;;;;86.85;79.35;;;;;;;-4.14;100.00;101943.28;5000390;28;20058;-79
2022/01/26 06:33:05;;;;;;;84.05;77.15;;;;;;;-4.26;100.00;101946.50;5002259;28;20062;-81
2022/01/26 06:35:34;;;;;;;81.90;74.70;;;;;;;-4.09;100.00;101935.22;5003639;28;20568;-79
2022/01/26 06:38:01;;;;;;;82.80;75.70;;;;;;;-4.16;100.00;101937.31;4997703;28;20133;-79
2022/01/26 06:40:29;;;;;;;81.55;73.85;;;;;;;-4.09;100.00;101930.03;5001361;28;20121;-80
2022/01/26 06:42:59;;;;;;;81.65;74.55;;;;;;;-3.98;100.00;101933.75;4999630;28;20461;-82
2022/01/26 06:45:30;;;;;;;88.13;80.03;;;;;;;-4.01;100.00;101923.53;5003413;28;20046;-80
2022/01/26 06:48:00;;;;;;;80.85;73.68;;;;;;;-3.90;100.00;101909.97;5003059;28;20054;-80
2022/01/26 06:50:27;;;;;;;82.97;75.63;;;;;;;-3.83;100.00;101908.72;5002674;28;20128;-81
2022/01/26 06:52:54;;;;;;;81.85;75.28;;;;;;;-3.66;100.00;101915.59;4997372;28;20057;-81
2022/01/26 06:55:21;;;;;;;83.57;76.63;;;;;;;-3.78;100.00;101924.03;5001962;28;20042;-79
2022/01/26 06:57:50;;;;;;;84.07;77.30;;;;;;;-3.87;100.00;101917.59;5000035;28;20061;-82
2022/01/26 07:00:17;;;;;;;90.88;83.20;;;;;;;-3.64;100.00;101925.88;4981249;28;20055;-80
2022/01/26 07:02:44;;;;;;;89.95;82.22;;;;;;;-3.68;100.00;101920.03;4983913;28;20630;-79
2022/01/26 07:05:11;;;;;;;85.88;78.60;;;;;;;-3.64;100.00;101928.47;4993864;28;20054;-79
2022/01/26 07:07:39;;;;;;;74.40;68.90;;;;;;;-3.57;100.00;101927.22;4988948;28;20467;-80
2022/01/26 07:10:07;;;;;;;77.32;71.00;;;;;;;-3.58;100.00;101930.75;4993592;28;20058;-79
2022/01/26 07:12:33;;;;;;;75.65;69.43;;;;;;;-3.29;100.00;101932.56;4989731;28;20054;-80
2022/01/26 07:23:15;;;;;;;83.20;76.40;;;;;;;-3.19;100.00;101934.63;4983778;28;20497;-80
2022/01/26 07:25:41;;;;;;;77.82;71.72;;;;;;;-3.40;100.00;101936.69;4987855;28;20468;-84
2022/01/26 07:28:08;;;;;;;82.65;75.55;;;;;;;-3.28;100.00;101941.19;4986647;28;20046;-81
2022/01/26 07:30:37;;;;;;;83.13;76.03;;;;;;;-3.03;100.00;101948.41;4986696;28;20113;-79
2022/01/26 07:33:04;;;;;;;83.20;76.22;;;;;;;-2.98;100.00;101933.41;4993830;28;20058;-83
2022/01/26 07:35:30;;;;;;;82.47;76.00;;;;;;;-2.92;100.00;101932.22;4993549;28;20471;-82
2022/01/26 07:37:59;;;;;;;84.97;77.88;;;;;;;-2.87;100.00;101923.22;4992112;28;20129;-79
2022/01/26 07:40:26;;;;;;;85.47;78.78;;;;;;;-2.52;100.00;101933.31;4991006;28;20042;-79
2022/01/26 07:42:54;;;;;;;89.78;82.28;;;;;;;-2.80;100.00;101921.09;4986935;28;20120;-79
2022/01/26 07:45:21;;;;;;;87.57;80.43;;;;;;;-2.54;100.00;101922.19;4991001;28;20054;-81
2022/01/26 07:47:52;;;;;;;83.75;76.93;;;;;;;-2.45;100.00;101921.63;4990811;28;20047;-80
2022/01/26 07:50:21;;;;;;;84.28;77.82;;;;;;;-2.46;100.00;101940.75;4984408;28;20053;-80
2022/01/26 07:52:48;;;;;;;83.50;77.35;;;;;;;-2.28;100.00;101949.22;4993422;28;20479;-81
2022/01/26 07:55:17;;;;;;;82.30;75.80;;;;;;;-2.26;100.00;101938.72;4992787;28;20050;-80
2022/01/26 07:57:46;;;;;;;77.80;71.35;;;;;;;-1.94;100.00;101934.13;4985440;28;20169;-79
2022/01/26 08:00:13;;;;;;;78.97;72.85;;;;;;;-2.12;100.00;101936.97;4993612;28;20043;-80
2022/01/26 08:02:40;;;;;;;77.10;71.10;;;;;;;-1.56;100.00;101934.34;4991910;28;20066;-83
2022/01/26 08:05:09;;;;;;;79.55;73.65;;;;;;;-1.83;100.00;101928.28;4990469;28;20117;-79
2022/01/26 08:07:35;;;;;;;91.60;84.25;;;;;;;-2.10;100.00;101924.66;4991895;28;20055;-80
2022/01/26 08:10:02;;;;;;;99.63;91.53;;;;;;;-1.67;100.00;101921.16;4985317;28;20117;-79
2022/01/26 08:12:29;;;;;;;94.95;87.45;;;;;;;-1.64;100.00;101911.38;4990100;28;20121;-79
2022/01/26 08:14:56;;;;;;;90.80;83.70;;;;;;;-1.97;100.00;101916.09;4984749;28;20417;-81
2022/01/26 08:17:23;;;;;;;86.00;79.53;;;;;;;-1.72;100.00;101925.84;4989806;28;20042;-80
2022/01/26 08:19:52;;;;;;;94.47;87.07;;;;;;;-2.06;100.00;101917.50;4985366;28;20058;-78
2022/01/26 08:22:20;;;;;;;89.88;82.75;;;;;;;-1.88;100.00;101911.16;4991450;28;20051;-78
2022/01/26 08:24:47;;;;;;;86.68;79.82;;;;;;;-1.89;100.00;101916.47;4989175;28;20050;-79
2022/01/26 08:27:16;;;;;;;85.25;78.43;;;;;;;-1.42;100.00;101913.47;4985342;28;20069;-80
2022/01/26 08:29:47;;;;;;;83.20;76.50;;;;;;;-1.73;100.00;101918.94;4988984;28;20054;-79
2022/01/26 08:32:14;;;;;;;81.15;74.47;;;;;;;-1.42;100.00;101926.50;4988841;28;20049;-81
2022/01/26 08:34:40;;;;;;;80.95;74.40;;;;;;;-1.31;100.00;101925.78;4981443;28;20128;-81
2022/01/26 08:37:07;;;;;;;87.93;80.53;;;;;;;-1.83;100.00;101928.28;4986539;28;20062;-81
2022/01/26 08:39:37;;;;;;;87.72;80.40;;;;;;;-1.57;100.00;101917.06;4983920;28;20065;-79
2022/01/26 08:42:06;;;;;;;89.22;82.05;;;;;;;-1.20;100.00;101920.72;4985921;28;20132;-79
2022/01/26 08:44:33;;;;;;;86.28;79.22;;;;;;;-1.32;100.00;101936.34;4982597;28;20140;-80
2022/01/26 08:47:00;;;;;;;81.57;74.93;;;;;;;-1.47;100.00;101928.56;4972974;28;20059;-81
2022/01/26 08:49:27;;;;;;;87.18;80.03;;;;;;;-1.30;100.00;101934.44;4982375;28;20062;-81
2022/01/26 08:54:22;;;;;;;84.80;77.80;;;;;;;-1.44;100.00;101936.19;5081041;27;20950;-78
2022/01/26 08:56:50;;;;;;;91.20;83.88;;;;;;;-1.51;100.00;101947.06;5063528;28;20499;-81
2022/01/26 08:59:17;;;;;;;89.45;82.22;;;;;;;-1.35;100.00;101947.78;5066500;28;20045;-79
2022/01/26 09:01:44;;;;;;;88.07;80.70;;;;;;;-1.33;100.00;101932.03;5067078;28;20118;-80
2022/01/26 09:04:10;;;;;;;88.57;81.30;;;;;;;-1.00;100.00;101939.44;5064609;28;20451;-81
2022/01/26 09:06:49;;;;;;;93.70;86.07;;;;;;;-0.89;100.00;101936.13;5066675;28;20114;-82
2022/01/26 09:09:16;;;;;;;90.25;82.75;;;;;;;-1.17;100.00;101938.78;5066973;28;20167;-79
2022/01/26 09:11:47;;;;;;;92.75;84.97;;;;;;;-0.73;100.00;101936.78;5067104;28;20064;-80
2022/01/26 09:14:17;;;;;;;88.60;81.13;;;;;;;-0.40;100.00;101931.03;5065465;28;20055;-80
2022/01/26 09:16:44;;;;;;;96.70;88.65;;;;;;;-0.31;100.00;101932.19;5066809;28;20485;-79
2022/01/26 09:19:23;;;;;;;96.93;89.00;;;;;;;-0.79;100.00;101935.41;5059909;28;20404;-81
2022/01/26 09:21:49;;;;;;;88.82;82.18;;;;;;;-0.71;100.00;101932.28;5056383;28;20140;-78
2022/01/26 09:24:16;;;;;;;93.07;85.80;;;;;;;-0.87;100.00;101918.63;5055891;28;20049;-80
2022/01/26 09:26:44;;;;;;;94.50;86.18;;;;;;;-0.31;100.00;101929.59;5063839;28;20760;-83
2022/01/26 09:29:11;;;;;;;84.10;77.32;;;;;;;-0.48;100.00;101935.97;5063197;28;20125;-80
2022/01/26 09:31:38;;;;;;;82.88;76.07;;;;;;;-0.62;100.00;101926.47;5065125;28;20053;-80
2022/01/26 09:34:05;;;;;;;86.05;79.05;;;;;;;-0.18;100.00;101929.56;5062073;28;20057;-80
2022/01/26 09:36:31;;;;;;;84.03;77.45;;;;;;;-0.24;100.00;101915.19;5065035;28;20114;-78
2022/01/26 09:38:58;;;;;;;86.13;79.22;;;;;;;-0.29;100.00;101906.81;5066360;28;20053;-78
2022/01/26 09:41:25;;;;;;;92.28;84.70;;;;;;;0.19;100.00;101922.63;5057716;28;20477;-80
2022/01/26 09:43:54;;;;;;;95.93;87.80;;;;;;;0.25;100.00;101913.50;5062455;28;20056;-80
2022/01/26 09:46:20;;;;;;;89.80;82.35;;;;;;;0.33;100.00;101914.59;5063821;28;20049;-79
2022/01/26 09:48:47;;;;;;;88.07;80.88;;;;;;;0.01;100.00;101918.69;5063736;28;20114;-78
2022/01/26 09:51:16;;;;;;;84.05;77.32;;;;;;;0.06;100.00;101912.22;5054468;28;20060;-81
2022/01/26 09:53:43;;;;;;;92.30;84.95;;;;;;;-0.15;100.00;101900.63;5063604;28;20258;-80
2022/01/26 09:56:10;;;;;;;91.75;84.07;;;;;;;-0.20;100.00;101913.19;5066260;28;20052;-81
2022/01/26 09:58:36;;;;;;;88.63;81.13;;;;;;;0.52;100.00;101914.13;5064513;28;20118;-80
2022/01/26 10:01:06;;;;;;;84.35;77.68;;;;;;;0.23;100.00;101911.00;5065191;28;20045;-81
2022/01/26 10:03:34;;;;;;;85.55;78.60;;;;;;;0.52;100.00;101913.31;5066654;28;20421;-83
2022/01/26 10:06:02;;;;;;;86.38;79.38;;;;;;;-0.19;100.00;101905.22;5042248;28;20057;-81
2022/01/26 10:19:59;;;;;;;85.07;78.28;;;;;;;0.33;100.00;101893.69;5047160;28;20199;-81
2022/01/26 10:22:28;;;;;;;86.85;80.00;;;;;;;-0.06;100.00;101900.84;5049030;28;20469;-81
2022/01/26 10:25:13;;;;;;;87.72;80.53;;;;;;;0.52;100.00;101895.00;5049567;28;20489;-80
2022/01/26 10:27:41;;;;;;;89.15;81.80;;;;;;;0.55;100.00;101881.72;5045514;28;20477;-82
2022/01/26 10:30:11;;;;;;;89.88;82.25;;;;;;;0.47;100.00;101878.81;5054821;28;20057;-79
2022/01/26 10:32:41;;;;;;;90.13;82.63;;;;;;;0.77;100.00;101873.94;5045985;28;20048;-79
2022/01/26 10:35:10;;;;;;;89.30;82.13;;;;;;;0.96;97.64;101873.41;5051717;28;20040;-83
2022/01/26 10:37:41;;;;;;;99.65;91.70;;;;;;;1.28;98.04;101868.34;5047443;28;20045;-79
2022/01/26 10:40:12;;;;;;;94.18;85.63;;;;;;;1.16;100.00;101865.84;5048910;28;20492;-79
2022/01/26 10:42:39;;;;;;;85.60;78.55;;;;;;;1.33;100.00;101871.47;5044878;28;20057;-81
2022/01/26 10:45:11;;;;;;;93.30;85.03;;;;;;;1.00;97.80;101869.63;5041917;28;20042;-79
2022/01/26 10:47:44;;;;;;;;;;;;;;;1.32;95.79;101861.09;5049385;28;20056;-79
2022/01/26 10:50:45;;;;;;;95.45;87.15;;;;;;;1.21;100.00;101854.09;5053071;28;19982;-81
2022/01/26 10:53:16;;;;;;;95.85;88.15;;;;;;;1.47;97.24;101856.47;5047458;28;20136;-80
2022/01/26 10:55:43;;;;;;;92.72;85.28;;;;;;;1.34;97.75;101853.97;5049540;28;20492;-78
2022/01/26 10:58:10;;;;;;;92.43;84.82;;;;;;;1.07;100.00;101857.72;5047378;28;20057;-81
2022/01/26 11:00:39;;;;;;;104.30;95.47;;;;;;;1.29;100.00;101853.47;5047671;28;20486;-81
2022/01/26 11:03:08;;;;;;;93.55;86.07;;;;;;;1.21;100.00;101851.47;5047895;28;20075;-80
2022/01/26 11:05:35;;;;;;;98.00;89.60;;;;;;;1.34;96.79;101854.78;5054633;28;20393;-80
2022/01/26 11:08:02;;;;;;;87.32;79.97;;;;;;;1.37;100.00;101851.13;5054192;28;20045;-79
2022/01/26 11:10:34;;;;;;;90.15;82.95;;;;;;;1.54;96.88;101852.41;5054111;28;20052;-81
2022/01/26 11:13:01;;;;;;;94.05;86.53;;;;;;;1.71;96.09;101840.63;5054254;28;20475;-80
2022/01/26 11:15:28;;;;;;;92.38;85.18;;;;;;;2.41;95.50;101847.25;5054374;28;20049;-80
2022/01/26 11:18:07;;;;;;;95.78;87.60;;;;;;;2.91;88.90;101840.47;5053854;28;20052;-79
2022/01/26 11:20:48;;;;;;;93.93;86.40;;;;;;;1.95;85.99;101832.63;5054485;28;20079;-78
2022/01/26 11:23:18;;;;;;;92.60;85.30;;;;;;;1.44;90.22;101831.34;5045779;28;20557;-81
2022/01/26 11:25:47;;;;;;;100.35;91.53;;;;;;;1.83;86.59;101823.94;5050437;28;20045;-79
2022/01/26 11:28:19;;;;;;;95.18;87.53;;;;;;;1.67;87.27;101832.19;5041034;28;20386;-79
2022/01/26 11:30:46;;;;;;;;;;;;;;;1.72;90.33;101827.41;5044041;28;20097;-79
2022/01/26 11:33:17;;;;;;;85.32;79.00;;;;;;;1.64;91.52;101826.34;5044140;28;20341;-81
2022/01/26 11:35:47;;;;;;;85.33;78.33;;;;;;;1.34;89.13;101820.75;5049067;28;20057;-80
2022/01/26 11:38:41;;;;;;;88.45;81.38;;;;;;;1.16;89.70;101818.75;5044738;28;20556;-80
2022/01/26 11:46:55;;;;;;;98.68;90.72;;;;;;;1.26;90.29;101809.22;5053819;28;20111;-81
2022/01/26 11:49:26;;;;;;;94.10;86.53;;;;;;;1.68;89.26;101809.44;5041615;28;20072;-79
2022/01/26 11:51:56;;;;;;;92.97;85.82;;;;;;;1.61;87.90;101803.84;5050811;28;20497;-81
2022/01/26 11:54:25;;;;;;;96.00;88.10;;;;;;;1.34;90.23;101801.59;5047180;28;20045;-80
2022/01/26 11:57:04;;;;;;;94.55;86.75;;;;;;;1.55;90.31;101801.72;5046294;28;20414;-81
2022/01/26 11:59:33;;;;;;;62.30;56.85;;;;;;;1.65;89.72;101796.59;5049053;28;20052;-78
2022/01/26 12:02:03;;;;;;;54.22;50.35;;;;;;;1.81;89.87;101808.31;5035543;28;20050;-79
2022/01/26 12:04:35;;;;;;;60.60;55.47;;;;;;;1.74;89.26;101801.91;5051552;28;20367;-78
2022/01/26 12:07:19;;;;;;;57.35;52.90;;;;;;;1.78;92.10;101812.97;5045799;28;20041;-80
2022/01/26 12:09:46;;;;;;;58.58;53.70;;;;;;;1.70;92.09;101803.13;5047452;28;20417;-81
2022/01/26 12:12:18;;;;;;;58.28;53.75;;;;;;;1.84;92.04;101804.63;5052600;28;20056;-85
2022/01/26 12:14:46;;;;;;;57.97;53.28;;;;;;;1.47;89.92;101796.25;5045829;28;20053;-82
2022/01/26 12:17:24;;;;;;;59.25;54.33;;;;;;;1.89;90.13;101796.44;5051283;28;20409;-78
2022/01/26 12:31:58;;;;;;;59.30;54.47;;;;;;;1.56;91.58;101793.72;5045083;28;20076;-79
2022/01/26 12:34:30;;;;;;;62.72;57.50;;;;;;;2.01;89.60;101795.44;5050857;28;20429;-79
2022/01/26 12:37:08;;;;;;;61.38;56.60;;;;;;;1.62;89.52;101781.13;5039512;28;20472;-80
2022/01/26 12:42:37;;;;;;;59.83;54.78;;;;;;;1.65;91.07;101781.69;5042841;28;20126;-81
2022/01/26 12:45:05;;;;;;;59.60;55.00;;;;;;;1.79;88.78;101791.91;5043276;28;20045;-80
2022/01/26 12:47:33;;;;;;;60.90;55.35;;;;;;;2.11;87.94;101785.03;5041866;28;20118;-81
2022/01/26 12:50:00;;;;;;;50.92;47.55;;;;;;;2.13;88.89;101780.50;5044006;28;20060;-80
2022/01/26 12:52:29;;;;;;;57.83;53.25;;;;;;;1.93;89.95;101772.47;5043407;28;20114;-78
2022/01/26 12:54:56;;;;;;;58.42;53.72;;;;;;;1.86;89.68;101784.41;5040573;28;20045;-80
2022/01/26 12:57:23;;;;;;;57.03;52.53;;;;;;;1.93;88.66;101792.59;5048328;28;20543;-80
2022/01/26 12:59:59;;;;;;;56.53;51.60;;;;;;;1.87;87.36;101783.44;5045803;28;20053;-81
2022/01/26 13:02:26;;;;;;;57.28;52.08;;;;;;;1.87;88.79;101786.06;5039122;28;20052;-82
2022/01/26 13:04:59;;;;;;;57.50;52.75;;;;;;;1.76;88.70;101779.06;5042180;28;20049;-81
2022/01/26 13:07:25;;;;;;;62.33;57.20;;;;;;;1.83;88.64;101777.63;5043155;28;20448;-81
2022/01/26 13:09:54;;;;;;;59.63;54.95;;;;;;;2.02;91.76;101773.50;5045300;28;20436;-82